sensor_id;sensor_type;location;lat;lon;timestamp;pressure;altitude;pressure_sealevel;temperature;humidity
5872;BME280;2962;51.312;7.378;2023-02-20T00:00:20;98398.56;;;2.85;100.00
5872;BME280;2962;51.312;7.378;2023-02-20T00:02:46;98403.41;;;2.83;100.00
5872;BME280;2962;51.312;7.378;2023-02-20T00:05:12;98413.09;;;2.84;100.00
5872;BME280;2962;51.312;7.378;2023-02-20T00:07:37;98395.66;;;2.82;100.00
5872;BME280;2962;51.312;7.378;2023-02-20T00:10:03;98400.06;;;2.91;100.00
5872;BME280;2962;51.312;7.378;2023-02-20T00:12:28;98376.03;;;2.81;100.00
5872;BME280;2962;51.312;7.378;2023-02-20T00:14:54;98383.22;;;2.86;100.00
5872;BME280;2962;51.312;7.378;2023-02-20T00:17:19;98397.25;;;2.83;100.00
5872;BME280;2962;51.312;7.378;2023-02-20T00:19:44;98384.44;;;2.93;100.00
5872;BME280;2962;51.312;7.378;2023-02-20T00:22:09;98377.25;;;2.89;100.00
5872;BME280;2962;51.312;7.378;2023-02-20T00:24:35;98378.53;;;2.91;100.00
5872;BME280;2962;51.312;7.378;2023-02-20T00:27:00;98375.03;;;2.91;100.00
5872;BME280;2962;51.312;7.378;2023-02-20T00:29:25;98365.41;;;2.71;100.00
5872;BME280;2962;51.312;7.378;2023-02-20T00:31:55;98361.94;;;2.71;100.00
5872;BME280;2962;51.312;7.378;2023-02-20T00:34:23;98373.94;;;2.92;100.00
5872;BME280;2962;51.312;7.378;2023-02-20T00:36:49;98359.47;;;2.88;100.00
5872;BME280;2962;51.312;7.378;2023-02-20T00:39:14;98359.50;;;3.02;100.00
5872;BME280;2962;51.312;7.378;2023-02-20T00:41:39;98364.47;;;2.94;100.00
5872;BME280;2962;51.312;7.378;2023-02-20T00:44:05;98359.41;;;3.07;100.00
5872;BME280;2962;51.312;7.378;2023-02-20T00:46:30;98341.97;;;3.04;100.00
5872;BME280;2962;51.312;7.378;2023-02-20T00:48:56;98353.53;;;3.05;100.00
5872;BME280;2962;51.312;7.378;2023-02-20T00:51:21;98354.25;;;3.10;100.00
5872;BME280;2962;51.312;7.378;2023-02-20T00:53:46;98367.84;;;3.19;100.00
5872;BME280;2962;51.312;7.378;2023-02-20T00:56:12;98352.97;;;3.22;100.00
5872;BME280;2962;51.312;7.378;2023-02-20T00:58:37;98352.47;;;3.33;100.00
5872;BME280;2962;51.312;7.378;2023-02-20T01:01:02;98353.28;;;3.20;100.00
5872;BME280;2962;51.312;7.378;2023-02-20T01:03:28;98349.88;;;3.28;100.00
5872;BME280;2962;51.312;7.378;2023-02-20T01:05:53;98356.38;;;3.41;100.00
5872;BME280;2962;51.312;7.378;2023-02-20T01:08:18;98353.47;;;3.37;100.00
5872;BME280;2962;51.312;7.378;2023-02-20T01:10:43;98355.16;;;3.33;100.00
5872;BME280;2962;51.312;7.378;2023-02-20T01:13:09;98344.69;;;3.46;100.00
5872;BME280;2962;51.312;7.378;2023-02-20T01:15:34;98344.91;;;3.35;100.00
5872;BME280;2962;51.312;7.378;2023-02-20T01:17:59;98347.69;;;3.44;100.00
5872;BME280;2962;51.312;7.378;2023-02-20T01:20:24;98321.16;;;3.24;100.00
5872;BME280;2962;51.312;7.378;2023-02-20T01:22:50;98328.53;;;3.46;100.00
5872;BME280;2962;51.312;7.378;2023-02-20T01:25:15;98321.06;;;3.42;100.00
5872;BME280;2962;51.312;7.378;2023-02-20T01:27:41;98298.31;;;3.35;100.00
5872;BME280;2962;51.312;7.378;2023-02-20T01:30:07;98305.50;;;3.39;100.00
5872;BME280;2962;51.312;7.378;2023-02-20T01:32:33;98309.56;;;3.37;100.00
5872;BME280;2962;51.312;7.378;2023-02-20T01:34:58;98317.94;;;3.49;100.00
5872;BME280;2962;51.312;7.378;2023-02-20T01:37:23;98323.84;;;3.51;100.00
5872;BME280;2962;51.312;7.378;2023-02-20T01:39:49;98310.88;;;3.39;100.00
5872;BME280;2962;51.312;7.378;2023-02-20T01:42:20;98316.06;;;3.50;100.00
5872;BME280;2962;51.312;7.378;2023-02-20T01:44:47;98317.25;;;3.43;100.00
5872;BME280;2962;51.312;7.378;2023-02-20T01:47:15;98305.66;;;3.57;100.00
5872;BME280;2962;51.312;7.378;2023-02-20T01:49:55;98306.78;;;3.56;100.00
5872;BME280;2962;51.312;7.378;2023-02-20T01:52:30;98304.19;;;3.51;100.00
5872;BME280;2962;51.312;7.378;2023-02-20T01:55:12;98289.72;;;3.47;100.00
5872;BME280;2962;51.312;7.378;2023-02-20T01:57:41;98293.41;;;3.51;100.00
5872;BME280;2962;51.312;7.378;2023-02-20T02:00:10;98282.25;;;3.43;100.00
5872;BME280;2962;51.312;7.378;2023-02-20T02:02:41;98290.00;;;3.59;100.00
5872;BME280;2962;51.312;7.378;2023-02-20T02:05:09;98285.41;;;3.59;100.00
5872;BME280;2962;51.312;7.378;2023-02-20T02:07:35;98272.13;;;3.63;100.00
5872;BME280;2962;51.312;7.378;2023-02-20T02:10:09;98269.78;;;3.48;100.00
5872;BME280;2962;51.312;7.378;2023-02-20T02:12:36;98278.84;;;3.52;100.00
5872;BME280;2962;51.312;7.378;2023-02-20T02:15:01;98286.91;;;3.65;100.00
5872;BME280;2962;51.312;7.378;2023-02-20T02:17:49;98277.84;;;3.48;100.00
5872;BME280;2962;51.312;7.378;2023-02-20T02:20:32;98272.56;;;3.42;100.00
5872;BME280;2962;51.312;7.378;2023-02-20T02:31:38;98243.03;;;3.37;100.00
5872;BME280;2962;51.312;7.378;2023-02-20T02:37:20;98234.25;;;3.46;100.00
5872;BME280;2962;51.312;7.378;2023-02-20T02:39:57;98232.06;;;3.34;100.00
5872;BME280;2962;51.312;7.378;2023-02-20T02:42:39;98221.59;;;3.32;100.00
5872;BME280;2962;51.312;7.378;2023-02-20T02:48:04;98205.25;;;3.15;100.00
5872;BME280;2962;51.312;7.378;2023-02-20T02:50:33;98214.50;;;3.23;100.00
5872;BME280;2962;51.312;7.378;2023-02-20T02:53:03;98201.88;;;3.09;100.00
5872;BME280;2962;51.312;7.378;2023-02-20T02:55:30;98217.91;;;3.14;100.00
5872;BME280;2962;51.312;7.378;2023-02-20T02:57:58;98201.56;;;3.11;100.00
5872;BME280;2962;51.312;7.378;2023-02-20T03:00:28;98211.53;;;3.24;100.00
5872;BME280;2962;51.312;7.378;2023-02-20T03:03:19;98209.56;;;3.16;100.00
5872;BME280;2962;51.312;7.378;2023-02-20T03:05:56;98217.91;;;3.14;100.00
5872;BME280;2962;51.312;7.378;2023-02-20T03:08:29;98218.91;;;3.18;100.00
5872;BME280;2962;51.312;7.378;2023-02-20T03:11:02;98220.53;;;3.20;100.00
5872;BME280;2962;51.312;7.378;2023-02-20T03:13:30;98212.31;;;3.38;100.00
5872;BME280;2962;51.312;7.378;2023-02-20T03:16:18;98199.19;;;3.23;100.00
5872;BME280;2962;51.312;7.378;2023-02-20T03:18:47;98187.59;;;3.23;100.00
5872;BME280;2962;51.312;7.378;2023-02-20T03:21:18;98211.22;;;3.39;100.00
5872;BME280;2962;51.312;7.378;2023-02-20T03:23:51;98187.56;;;3.36;100.00
5872;BME280;2962;51.312;7.378;2023-02-20T03:26:21;98176.41;;;3.29;100.00
5872;BME280;2962;51.312;7.378;2023-02-20T03:29:02;98193.28;;;3.35;100.00
5872;BME280;2962;51.312;7.378;2023-02-20T03:31:33;98195.16;;;3.34;100.00
5872;BME280;2962;51.312;7.378;2023-02-20T03:34:10;98185.47;;;3.33;100.00
5872;BME280;2962;51.312;7.378;2023-02-20T03:37:07;98186.59;;;3.32;100.00
5872;BME280;2962;51.312;7.378;2023-02-20T03:39:56;98174.63;;;3.25;100.00
5872;BME280;2962;51.312;7.378;2023-02-20T03:42:47;98185.22;;;3.21;100.00
5872;BME280;2962;51.312;7.378;2023-02-20T03:45:34;98168.94;;;3.26;100.00
5872;BME280;2962;51.312;7.378;2023-02-20T03:48:05;98180.22;;;3.14;100.00
5872;BME280;2962;51.312;7.378;2023-02-20T03:50:31;98179.22;;;3.24;100.00
5872;BME280;2962;51.312;7.378;2023-02-20T03:53:16;98194.00;;;3.27;100.00
5872;BME280;2962;51.312;7.378;2023-02-20T03:55:41;98174.25;;;3.17;100.00
5872;BME280;2962;51.312;7.378;2023-02-20T03:58:09;98175.81;;;3.18;100.00
5872;BME280;2962;51.312;7.378;2023-02-20T04:00:45;98178.91;;;3.26;100.00
5872;BME280;2962;51.312;7.378;2023-02-20T04:03:19;98178.63;;;3.13;100.00
5872;BME280;2962;51.312;7.378;2023-02-20T04:05:48;98156.91;;;3.10;100.00
5872;BME280;2962;51.312;7.378;2023-02-20T04:10:59;98152.53;;;3.00;100.00
5872;BME280;2962;51.312;7.378;2023-02-20T04:13:27;98172.06;;;3.06;100.00
5872;BME280;2962;51.312;7.378;2023-02-20T04:15:55;98159.72;;;3.05;100.00
5872;BME280;2962;51.312;7.378;2023-02-20T04:18:23;98159.38;;;3.20;100.00
5872;BME280;2962;51.312;7.378;2023-02-20T04:20:52;98172.84;;;3.20;100.00
5872;BME280;2962;51.312;7.378;2023-02-20T04:23:20;98193.41;;;3.16;100.00
5872;BME280;2962;51.312;7.378;2023-02-20T04:25:52;98171.47;;;3.09;100.00
5872;BME280;2962;51.312;7.378;2023-02-20T04:28:20;98169.44;;;3.28;100.00
5872;BME280;2962;51.312;7.378;2023-02-20T04:30:46;98175.41;;;3.39;100.00
5872;BME280;2962;51.312;7.378;2023-02-20T04:33:13;98161.69;;;3.27;100.00
5872;BME280;2962;51.312;7.378;2023-02-20T04:35:38;98155.00;;;3.24;100.00
5872;BME280;2962;51.312;7.378;2023-02-20T04:38:04;98168.66;;;3.28;100.00
5872;BME280;2962;51.312;7.378;2023-02-20T04:40:30;98170.13;;;3.34;100.00
5872;BME280;2962;51.312;7.378;2023-02-20T04:42:55;98165.75;;;3.24;100.00
5872;BME280;2962;51.312;7.378;2023-02-20T04:45:20;98143.50;;;3.18;100.00
5872;BME280;2962;51.312;7.378;2023-02-20T04:47:46;98145.31;;;3.23;100.00
5872;BME280;2962;51.312;7.378;2023-02-20T04:50:29;98144.34;;;3.05;100.00
5872;BME280;2962;51.312;7.378;2023-02-20T04:52:54;98150.66;;;3.01;100.00
5872;BME280;2962;51.312;7.378;2023-02-20T04:55:20;98137.19;;;3.01;100.00
5872;BME280;2962;51.312;7.378;2023-02-20T04:57:47;98137.88;;;3.06;100.00
5872;BME280;2962;51.312;7.378;2023-02-20T05:00:14;98137.94;;;3.15;100.00
5872;BME280;2962;51.312;7.378;2023-02-20T05:02:40;98136.66;;;3.12;100.00
5872;BME280;2962;51.312;7.378;2023-02-20T05:05:06;98134.19;;;3.02;100.00
5872;BME280;2962;51.312;7.378;2023-02-20T05:07:38;98129.41;;;2.99;100.00
5872;BME280;2962;51.312;7.378;2023-02-20T05:10:04;98126.63;;;2.90;100.00
5872;BME280;2962;51.312;7.378;2023-02-20T05:12:29;98127.81;;;2.98;100.00
5872;BME280;2962;51.312;7.378;2023-02-20T05:14:54;98122.13;;;3.00;100.00
5872;BME280;2962;51.312;7.378;2023-02-20T05:17:20;98117.63;;;2.95;100.00
5872;BME280;2962;51.312;7.378;2023-02-20T05:19:45;98113.94;;;3.05;100.00
5872;BME280;2962;51.312;7.378;2023-02-20T05:22:11;98108.78;;;2.94;100.00
5872;BME280;2962;51.312;7.378;2023-02-20T05:24:46;98108.84;;;3.03;100.00
5872;BME280;2962;51.312;7.378;2023-02-20T05:27:13;98112.38;;;3.04;100.00
5872;BME280;2962;51.312;7.378;2023-02-20T05:29:44;98103.00;;;3.01;100.00
5872;BME280;2962;51.312;7.378;2023-02-20T05:32:09;98110.34;;;2.96;100.00
5872;BME280;2962;51.312;7.378;2023-02-20T05:34:35;98105.09;;;2.90;100.00
5872;BME280;2962;51.312;7.378;2023-02-20T05:37:00;98085.34;;;2.95;100.00
5872;BME280;2962;51.312;7.378;2023-02-20T05:39:25;98082.19;;;2.79;100.00
5872;BME280;2962;51.312;7.378;2023-02-20T05:41:50;98081.97;;;2.89;100.00
5872;BME280;2962;51.312;7.378;2023-02-20T05:44:16;98097.28;;;3.03;100.00
5872;BME280;2962;51.312;7.378;2023-02-20T05:46:41;98097.22;;;2.94;100.00
5872;BME280;2962;51.312;7.378;2023-02-20T05:49:08;98101.28;;;2.91;100.00
5872;BME280;2962;51.312;7.378;2023-02-20T05:51:34;98101.81;;;2.93;100.00
5872;BME280;2962;51.312;7.378;2023-02-20T05:53:59;98111.47;;;2.94;100.00
5872;BME280;2962;51.312;7.378;2023-02-20T05:56:24;98103.69;;;2.93;100.00
5872;BME280;2962;51.312;7.378;2023-02-20T05:58:50;98107.00;;;2.90;100.00
5872;BME280;2962;51.312;7.378;2023-02-20T06:01:20;98101.09;;;2.88;100.00
5872;BME280;2962;51.312;7.378;2023-02-20T06:03:46;98106.28;;;2.84;100.00
5872;BME280;2962;51.312;7.378;2023-02-20T06:06:11;98091.38;;;2.78;100.00
5872;BME280;2962;51.312;7.378;2023-02-20T06:08:38;98104.22;;;2.81;100.00
5872;BME280;2962;51.312;7.378;2023-02-20T06:11:03;98096.53;;;2.88;100.00
5872;BME280;2962;51.312;7.378;2023-02-20T06:13:28;98093.94;;;2.83;100.00
5872;BME280;2962;51.312;7.378;2023-02-20T06:15:53;98105.22;;;2.85;100.00
5872;BME280;2962;51.312;7.378;2023-02-20T06:18:19;98087.56;;;2.79;100.00
5872;BME280;2962;51.312;7.378;2023-02-20T06:20:44;98080.09;;;2.76;100.00
5872;BME280;2962;51.312;7.378;2023-02-20T06:23:09;98078.19;;;2.77;100.00
5872;BME280;2962;51.312;7.378;2023-02-20T06:25:35;98082.78;;;2.76;100.00
5872;BME280;2962;51.312;7.378;2023-02-20T06:28:00;98086.47;;;2.80;100.00
5872;BME280;2962;51.312;7.378;2023-02-20T06:30:25;98078.69;;;2.79;100.00
5872;BME280;2962;51.312;7.378;2023-02-20T06:32:50;98072.03;;;2.76;100.00
5872;BME280;2962;51.312;7.378;2023-02-20T06:35:15;98088.66;;;2.78;100.00
5872;BME280;2962;51.312;7.378;2023-02-20T06:37:41;98091.16;;;2.75;100.00
5872;BME280;2962;51.312;7.378;2023-02-20T06:40:07;98078.50;;;2.89;100.00
5872;BME280;2962;51.312;7.378;2023-02-20T06:42:33;98083.44;;;2.96;100.00
5872;BME280;2962;51.312;7.378;2023-02-20T06:44:58;98088.16;;;2.90;100.00
5872;BME280;2962;51.312;7.378;2023-02-20T06:47:23;98089.13;;;3.08;100.00
5872;BME280;2962;51.312;7.378;2023-02-20T06:49:48;98096.09;;;3.09;100.00
5872;BME280;2962;51.312;7.378;2023-02-20T06:52:14;98094.38;;;3.13;100.00
5872;BME280;2962;51.312;7.378;2023-02-20T06:54:39;98093.72;;;3.30;100.00
5872;BME280;2962;51.312;7.378;2023-02-20T06:57:05;98095.44;;;3.26;100.00
5872;BME280;2962;51.312;7.378;2023-02-20T06:59:30;98107.38;;;3.33;100.00
5872;BME280;2962;51.312;7.378;2023-02-20T07:01:56;98109.97;;;3.38;100.00
5872;BME280;2962;51.312;7.378;2023-02-20T07:04:23;98101.75;;;3.43;100.00
5872;BME280;2962;51.312;7.378;2023-02-20T07:06:51;98103.22;;;3.27;100.00
5872;BME280;2962;51.312;7.378;2023-02-20T07:09:16;98124.53;;;3.37;100.00
5872;BME280;2962;51.312;7.378;2023-02-20T07:11:42;98126.94;;;3.39;100.00
5872;BME280;2962;51.312;7.378;2023-02-20T07:14:08;98124.53;;;3.37;100.00
5872;BME280;2962;51.312;7.378;2023-02-20T07:16:33;98146.16;;;3.46;100.00
5872;BME280;2962;51.312;7.378;2023-02-20T07:18:59;98156.44;;;3.44;100.00
5872;BME280;2962;51.312;7.378;2023-02-20T07:21:24;98145.47;;;3.40;100.00
5872;BME280;2962;51.312;7.378;2023-02-20T07:23:49;98137.13;;;3.28;100.00
5872;BME280;2962;51.312;7.378;2023-02-20T07:26:24;98132.13;;;3.35;100.00
5872;BME280;2962;51.312;7.378;2023-02-20T07:28:50;98128.28;;;3.14;100.00
5872;BME280;2962;51.312;7.378;2023-02-20T07:31:16;98133.63;;;3.28;100.00
5872;BME280;2962;51.312;7.378;2023-02-20T07:33:41;98138.97;;;3.19;100.00
5872;BME280;2962;51.312;7.378;2023-02-20T07:36:10;98136.13;;;3.24;100.00
5872;BME280;2962;51.312;7.378;2023-02-20T07:38:36;98135.91;;;3.34;100.00
5872;BME280;2962;51.312;7.378;2023-02-20T07:41:02;98141.66;;;3.19;100.00
5872;BME280;2962;51.312;7.378;2023-02-20T07:43:27;98137.47;;;3.13;100.00
5872;BME280;2962;51.312;7.378;2023-02-20T07:45:52;98133.94;;;3.26;100.00
5872;BME280;2962;51.312;7.378;2023-02-20T07:48:17;98123.00;;;3.09;100.00
5872;BME280;2962;51.312;7.378;2023-02-20T07:50:43;98145.41;;;3.18;100.00
5872;BME280;2962;51.312;7.378;2023-02-20T07:53:12;98142.34;;;3.11;100.00
5872;BME280;2962;51.312;7.378;2023-02-20T07:55:38;98126.94;;;2.89;100.00
5872;BME280;2962;51.312;7.378;2023-02-20T07:58:03;98143.75;;;2.94;100.00
5872;BME280;2962;51.312;7.378;2023-02-20T08:00:28;98143.75;;;2.94;100.00
5872;BME280;2962;51.312;7.378;2023-02-20T08:02:53;98136.59;;;3.04;100.00
5872;BME280;2962;51.312;7.378;2023-02-20T08:05:19;98161.09;;;3.02;100.00
5872;BME280;2962;51.312;7.378;2023-02-20T08:07:46;98131.22;;;3.04;100.00
5872;BME280;2962;51.312;7.378;2023-02-20T08:10:15;98134.97;;;3.03;100.00
5872;BME280;2962;51.312;7.378;2023-02-20T08:12:41;98138.97;;;3.05;100.00
5872;BME280;2962;51.312;7.378;2023-02-20T08:15:06;98147.81;;;3.20;100.00
5872;BME280;2962;51.312;7.378;2023-02-20T08:17:34;98130.50;;;3.12;100.00
5872;BME280;2962;51.312;7.378;2023-02-20T08:19:59;98142.38;;;2.97;100.00
5872;BME280;2962;51.312;7.378;2023-02-20T08:22:24;98142.25;;;3.02;100.00
5872;BME280;2962;51.312;7.378;2023-02-20T08:24:50;98156.03;;;3.01;100.00
5872;BME280;2962;51.312;7.378;2023-02-20T08:27:15;98149.53;;;3.15;100.00
5872;BME280;2962;51.312;7.378;2023-02-20T08:29:40;98141.94;;;3.17;100.00
5872;BME280;2962;51.312;7.378;2023-02-20T08:32:06;98151.31;;;3.20;100.00
5872;BME280;2962;51.312;7.378;2023-02-20T08:34:31;98136.25;;;3.19;100.00
5872;BME280;2962;51.312;7.378;2023-02-20T08:36:56;98148.03;;;3.23;100.00
5872;BME280;2962;51.312;7.378;2023-02-20T08:39:21;98146.59;;;3.26;100.00
5872;BME280;2962;51.312;7.378;2023-02-20T08:41:47;98134.06;;;3.07;100.00
5872;BME280;2962;51.312;7.378;2023-02-20T08:44:12;98146.13;;;3.24;100.00
5872;BME280;2962;51.312;7.378;2023-02-20T08:46:45;98151.19;;;3.25;100.00
5872;BME280;2962;51.312;7.378;2023-02-20T08:49:11;98130.88;;;3.19;100.00
5872;BME280;2962;51.312;7.378;2023-02-20T08:51:36;98152.06;;;3.34;100.00
5872;BME280;2962;51.312;7.378;2023-02-20T08:54:01;98115.31;;;3.16;100.00
5872;BME280;2962;51.312;7.378;2023-02-20T08:56:28;98139.84;;;3.14;100.00
5872;BME280;2962;51.312;7.378;2023-02-20T08:58:54;98123.19;;;3.12;100.00
5872;BME280;2962;51.312;7.378;2023-02-20T09:01:19;98125.25;;;3.29;100.00
5872;BME280;2962;51.312;7.378;2023-02-20T09:03:44;98129.53;;;3.30;100.00
5872;BME280;2962;51.312;7.378;2023-02-20T09:06:09;98130.38;;;3.17;100.00
5872;BME280;2962;51.312;7.378;2023-02-20T09:08:35;98135.72;;;3.31;100.00
5872;BME280;2962;51.312;7.378;2023-02-20T09:11:00;98129.72;;;3.34;100.00
5872;BME280;2962;51.312;7.378;2023-02-20T09:13:27;98130.75;;;3.24;100.00
5872;BME280;2962;51.312;7.378;2023-02-20T09:15:52;98129.84;;;3.29;100.00
5872;BME280;2962;51.312;7.378;2023-02-20T09:18:17;98127.94;;;3.29;100.00
5872;BME280;2962;51.312;7.378;2023-02-20T09:20:43;98123.34;;;3.30;100.00
5872;BME280;2962;51.312;7.378;2023-02-20T09:23:08;98115.97;;;3.35;100.00
5872;BME280;2962;51.312;7.378;2023-02-20T09:25:34;98128.34;;;3.23;100.00
5872;BME280;2962;51.312;7.378;2023-02-20T09:28:00;98138.22;;;3.27;100.00
5872;BME280;2962;51.312;7.378;2023-02-20T09:30:25;98135.22;;;3.29;100.00
5872;BME280;2962;51.312;7.378;2023-02-20T09:32:51;98117.16;;;3.29;100.00
5872;BME280;2962;51.312;7.378;2023-02-20T09:35:20;98117.47;;;3.28;100.00
5872;BME280;2962;51.312;7.378;2023-02-20T09:37:46;98112.16;;;3.36;100.00
5872;BME280;2962;51.312;7.378;2023-02-20T09:40:12;98142.91;;;3.35;100.00
5872;BME280;2962;51.312;7.378;2023-02-20T09:48:03;98132.13;;;3.35;100.00
5872;BME280;2962;51.312;7.378;2023-02-20T09:50:56;98138.78;;;3.38;100.00
5872;BME280;2962;51.312;7.378;2023-02-20T09:53:29;98145.78;;;3.39;100.00
5872;BME280;2962;51.312;7.378;2023-02-20T09:55:58;98132.63;;;3.60;100.00
5872;BME280;2962;51.312;7.378;2023-02-20T09:58:43;98158.59;;;3.56;100.00
5872;BME280;2962;51.312;7.378;2023-02-20T10:01:13;98130.25;;;3.58;100.00
5872;BME280;2962;51.312;7.378;2023-02-20T10:03:58;98131.53;;;3.38;100.00
5872;BME280;2962;51.312;7.378;2023-02-20T10:06:30;98139.25;;;3.54;100.00
5872;BME280;2962;51.312;7.378;2023-02-20T10:08:56;98132.38;;;3.48;100.00
5872;BME280;2962;51.312;7.378;2023-02-20T10:11:42;98145.84;;;3.48;100.00
5872;BME280;2962;51.312;7.378;2023-02-20T10:14:33;98135.06;;;3.48;100.00
5872;BME280;2962;51.312;7.378;2023-02-20T10:17:16;98125.41;;;3.47;100.00
5872;BME280;2962;51.312;7.378;2023-02-20T10:25:27;98117.66;;;3.31;100.00
5872;BME280;2962;51.312;7.378;2023-02-20T10:28:08;98118.06;;;3.38;100.00
5872;BME280;2962;51.312;7.378;2023-02-20T10:30:38;98126.28;;;3.42;100.00
5872;BME280;2962;51.312;7.378;2023-02-20T10:33:30;98124.91;;;3.45;100.00
5872;BME280;2962;51.312;7.378;2023-02-20T10:36:09;98117.66;;;3.31;100.00
5872;BME280;2962;51.312;7.378;2023-02-20T10:38:44;98123.06;;;3.31;100.00
5872;BME280;2962;51.312;7.378;2023-02-20T10:41:34;98113.38;;;3.30;100.00
5872;BME280;2962;51.312;7.378;2023-02-20T10:44:16;98102.38;;;3.40;100.00
5872;BME280;2962;51.312;7.378;2023-02-20T10:49:21;98080.94;;;3.35;100.00
5872;BME280;2962;51.312;7.378;2023-02-20T10:51:51;98074.44;;;3.36;100.00
5872;BME280;2962;51.312;7.378;2023-02-20T10:54:30;98082.16;;;3.52;100.00
5872;BME280;2962;51.312;7.378;2023-02-20T10:57:12;98071.94;;;3.62;100.00
5872;BME280;2962;51.312;7.378;2023-02-20T10:59:50;98060.31;;;3.53;100.00
5872;BME280;2962;51.312;7.378;2023-02-20T11:02:25;98090.69;;;3.67;100.00
5872;BME280;2962;51.312;7.378;2023-02-20T11:04:56;98057.00;;;3.56;100.00
5872;BME280;2962;51.312;7.378;2023-02-20T11:07:24;98070.38;;;3.61;100.00
5872;BME280;2962;51.312;7.378;2023-02-20T11:09:50;98071.13;;;3.84;100.00
5872;BME280;2962;51.312;7.378;2023-02-20T11:12:38;98075.78;;;3.92;100.00
5872;BME280;2962;51.312;7.378;2023-02-20T11:15:11;98079.97;;;4.07;100.00
5872;BME280;2962;51.312;7.378;2023-02-20T11:17:38;98072.81;;;4.03;100.00
5872;BME280;2962;51.312;7.378;2023-02-20T11:20:05;98077.41;;;4.02;100.00
5872;BME280;2962;51.312;7.378;2023-02-20T11:22:50;98060.63;;;4.14;100.00
5872;BME280;2962;51.312;7.378;2023-02-20T11:25:25;98038.53;;;4.03;100.00
5872;BME280;2962;51.312;7.378;2023-02-20T11:27:55;98042.94;;;3.90;100.00
5872;BME280;2962;51.312;7.378;2023-02-20T11:30:31;98032.81;;;3.96;100.00
5872;BME280;2962;51.312;7.378;2023-02-20T11:33:21;98027.84;;;4.21;100.00
5872;BME280;2962;51.312;7.378;2023-02-20T11:35:54;98018.59;;;4.13;100.00
5872;BME280;2962;51.312;7.378;2023-02-20T11:40:47;98004.19;;;4.26;100.00
5872;BME280;2962;51.312;7.378;2023-02-20T11:43:32;98024.38;;;4.29;100.00
5872;BME280;2962;51.312;7.378;2023-02-20T11:46:08;98041.53;;;4.41;100.00
5872;BME280;2962;51.312;7.378;2023-02-20T11:48:34;98036.63;;;4.44;100.00
5872;BME280;2962;51.312;7.378;2023-02-20T11:50:59;98028.69;;;4.38;100.00
5872;BME280;2962;51.312;7.378;2023-02-20T11:53:29;98031.91;;;4.58;100.00
5872;BME280;2962;51.312;7.378;2023-02-20T11:56:16;98048.91;;;4.58;100.00
5872;BME280;2962;51.312;7.378;2023-02-20T11:58:44;98052.56;;;4.54;100.00
5872;BME280;2962;51.312;7.378;2023-02-20T12:01:31;98053.09;;;4.33;100.00
5872;BME280;2962;51.312;7.378;2023-02-20T12:03:58;98044.53;;;4.31;100.00
5872;BME280;2962;51.312;7.378;2023-02-20T12:06:42;98042.66;;;4.40;100.00
5872;BME280;2962;51.312;7.378;2023-02-20T12:09:15;98042.53;;;4.54;100.00
5872;BME280;2962;51.312;7.378;2023-02-20T12:11:42;98043.63;;;4.53;100.00
5872;BME280;2962;51.312;7.378;2023-02-20T12:14:13;98046.81;;;4.55;100.00
5872;BME280;2962;51.312;7.378;2023-02-20T12:19:21;98034.44;;;4.54;100.00
5872;BME280;2962;51.312;7.378;2023-02-20T12:27:49;98060.31;;;4.55;100.00
5872;BME280;2962;51.312;7.378;2023-02-20T12:30:39;98036.81;;;4.47;100.00
5872;BME280;2962;51.312;7.378;2023-02-20T12:38:48;98027.59;;;4.48;100.00
5872;BME280;2962;51.312;7.378;2023-02-20T12:46:45;98027.78;;;4.52;100.00
5872;BME280;2962;51.312;7.378;2023-02-20T12:52:07;98008.41;;;4.50;100.00
5872;BME280;2962;51.312;7.378;2023-02-20T12:54:49;98055.72;;;4.56;100.00
5872;BME280;2962;51.312;7.378;2023-02-20T12:57:30;98049.34;;;4.52;100.00
5872;BME280;2962;51.312;7.378;2023-02-20T13:00:03;98038.13;;;4.67;100.00
5872;BME280;2962;51.312;7.378;2023-02-20T13:02:37;98022.09;;;4.62;100.00
5872;BME280;2962;51.312;7.378;2023-02-20T13:05:06;98026.53;;;4.75;100.00
5872;BME280;2962;51.312;7.378;2023-02-20T13:07:46;98023.38;;;4.73;100.00
5872;BME280;2962;51.312;7.378;2023-02-20T13:10:24;98011.75;;;4.73;100.00
5872;BME280;2962;51.312;7.378;2023-02-20T13:12:52;98011.75;;;4.73;100.00
5872;BME280;2962;51.312;7.378;2023-02-20T13:18:06;98012.72;;;4.68;100.00
5872;BME280;2962;51.312;7.378;2023-02-20T13:20:55;97971.44;;;4.76;100.00
5872;BME280;2962;51.312;7.378;2023-02-20T13:25:52;97970.81;;;4.62;100.00
5872;BME280;2962;51.312;7.378;2023-02-20T13:28:25;97983.81;;;4.69;100.00
5872;BME280;2962;51.312;7.378;2023-02-20T13:31:14;97971.44;;;4.68;100.00
5872;BME280;2962;51.312;7.378;2023-02-20T13:33:43;97969.69;;;4.54;100.00
5872;BME280;2962;51.312;7.378;2023-02-20T13:47:26;97919.03;;;4.60;100.00
5872;BME280;2962;51.312;7.378;2023-02-20T13:52:42;97910.47;;;4.67;100.00
5872;BME280;2962;51.312;7.378;2023-02-20T13:57:54;97908.09;;;4.65;100.00
5872;BME280;2962;51.312;7.378;2023-02-20T14:00:46;97933.81;;;4.71;100.00
5872;BME280;2962;51.312;7.378;2023-02-20T14:03:25;97945.72;;;4.61;100.00
5872;BME280;2962;51.312;7.378;2023-02-20T14:06:13;97925.09;;;4.65;100.00
5872;BME280;2962;51.312;7.378;2023-02-20T14:08:41;97935.22;;;4.60;100.00
5872;BME280;2962;51.312;7.378;2023-02-20T14:11:09;97944.78;;;4.66;100.00
5872;BME280;2962;51.312;7.378;2023-02-20T14:13:36;97929.66;;;4.65;100.00
5872;BME280;2962;51.312;7.378;2023-02-20T14:16:03;97934.13;;;4.70;100.00
5872;BME280;2962;51.312;7.378;2023-02-20T14:18:32;97937.16;;;4.59;100.00
5872;BME280;2962;51.312;7.378;2023-02-20T14:21:08;97927.47;;;4.58;100.00
5872;BME280;2962;51.312;7.378;2023-02-20T14:23:35;97932.69;;;4.63;100.00
5872;BME280;2962;51.312;7.378;2023-02-20T14:26:04;97932.38;;;4.65;100.00
5872;BME280;2962;51.312;7.378;2023-02-20T14:28:32;97939.50;;;4.61;100.00
5872;BME280;2962;51.312;7.378;2023-02-20T14:33:51;97947.44;;;4.49;100.00
5872;BME280;2962;51.312;7.378;2023-02-20T14:36:29;97940.78;;;4.55;100.00
5872;BME280;2962;51.312;7.378;2023-02-20T14:38:59;97937.16;;;4.59;100.00
5872;BME280;2962;51.312;7.378;2023-02-20T14:41:29;97940.16;;;4.58;100.00
5872;BME280;2962;51.312;7.378;2023-02-20T14:43:58;97913.81;;;4.55;100.00
5872;BME280;2962;51.312;7.378;2023-02-20T14:46:29;97922.53;;;4.60;100.00
5872;BME280;2962;51.312;7.378;2023-02-20T14:49:11;97936.69;;;4.66;100.00
5872;BME280;2962;51.312;7.378;2023-02-20T14:51:37;97937.31;;;4.63;100.00
5872;BME280;2962;51.312;7.378;2023-02-20T14:56:40;97940.63;;;4.60;100.00
5872;BME280;2962;51.312;7.378;2023-02-20T14:59:28;97932.38;;;4.48;100.00